Log in Register

Login to your account

Username *
Password *
Remember Me

Create an account

Fields marked with an asterisk (*) are required.
Name *
Username *
Password *
Verify password *
Email *
Verify email *
Captcha *

Please enter the email address for your account. A verification code will be sent to you. Once you have received the verification code, you will be able to choose a new password for your account.

Nous contacter

 Téléphone : +33 (0)4 79 54 41 81

Coordonnées détaillées et accès : cliquez ici

facebook 770688 960 720  logo instagram large

[source: ADDS]
METAR / TAF
LFLB 040400Z AUTO 31003KT 9999 FEW084 OVC130 20/18 Q1019 NOSIG =
TAF LFLB 040200Z 0403/0503 VRB02KT CAVOK TEMPO 0403/0404 VRB15G25KT 2000 TSRA BKN080CB BECMG 0406/0408 36007KT PROB30 TEMPO 0409/0411 FEW070CB BECMG 0417/0419 VRB02KT PROB40 TEMPO 0418/0422 VRB15KT -SHRA FEW060CB SCT070TCU PROB30 TEMPO 0419/0422 4000 TSRA BKN070CB

SR / SS: 03:53 / 19:28 UTC (Lever/Coucher du soleil le 2022-07-05)
JSN Boot template designed by JoomlaShine.com